sensor_id;sensor_type;location;lat;lon;timestamp;temperature;humidity
19974;DHT22;10148;47.694;9.442;2022-07-29T00:00:02;18.70;99.90
19974;DHT22;10148;47.694;9.442;2022-07-29T00:02:28;18.60;99.90
19974;DHT22;10148;47.694;9.442;2022-07-29T00:04:54;18.60;99.90
19974;DHT22;10148;47.694;9.442;2022-07-29T00:07:19;18.60;99.90
19974;DHT22;10148;47.694;9.442;2022-07-29T00:09:45;18.60;99.90
19974;DHT22;10148;47.694;9.442;2022-07-29T00:12:10;18.60;99.90
19974;DHT22;10148;47.694;9.442;2022-07-29T00:14:36;18.50;99.90
19974;DHT22;10148;47.694;9.442;2022-07-29T00:17:02;18.50;99.90
19974;DHT22;10148;47.694;9.442;2022-07-29T00:19:27;18.50;99.90
19974;DHT22;10148;47.694;9.442;2022-07-29T00:21:53;18.50;99.90
19974;DHT22;10148;47.694;9.442;2022-07-29T00:24:18;18.50;99.90
19974;DHT22;10148;47.694;9.442;2022-07-29T00:26:44;18.40;99.90
19974;DHT22;10148;47.694;9.442;2022-07-29T00:29:09;18.40;99.90
19974;DHT22;10148;47.694;9.442;2022-07-29T00:31:35;18.40;99.90
19974;DHT22;10148;47.694;9.442;2022-07-29T00:34:01;18.30;99.90
19974;DHT22;10148;47.694;9.442;2022-07-29T00:36:27;18.30;99.90
19974;DHT22;10148;47.694;9.442;2022-07-29T00:38:53;18.30;99.90
19974;DHT22;10148;47.694;9.442;2022-07-29T00:41:18;18.30;99.90
19974;DHT22;10148;47.694;9.442;2022-07-29T00:43:44;18.20;99.90
19974;DHT22;10148;47.694;9.442;2022-07-29T00:46:10;18.20;99.90
19974;DHT22;10148;47.694;9.442;2022-07-29T00:48:36;18.20;99.90
19974;DHT22;10148;47.694;9.442;2022-07-29T00:51:03;18.20;99.90
19974;DHT22;10148;47.694;9.442;2022-07-29T00:53:30;18.20;99.90
19974;DHT22;10148;47.694;9.442;2022-07-29T00:55:56;18.20;99.90
19974;DHT22;10148;47.694;9.442;2022-07-29T00:58:23;18.20;99.90
19974;DHT22;10148;47.694;9.442;2022-07-29T01:00:48;18.30;99.90
19974;DHT22;10148;47.694;9.442;2022-07-29T01:03:14;18.30;99.90
19974;DHT22;10148;47.694;9.442;2022-07-29T01:05:41;18.20;99.90
19974;DHT22;10148;47.694;9.442;2022-07-29T01:08:08;18.20;99.90
19974;DHT22;10148;47.694;9.442;2022-07-29T01:10:36;18.20;99.90
19974;DHT22;10148;47.694;9.442;2022-07-29T01:13:04;18.20;99.90
19974;DHT22;10148;47.694;9.442;2022-07-29T01:15:30;18.20;99.90
19974;DHT22;10148;47.694;9.442;2022-07-29T01:20:31;18.20;99.90
19974;DHT22;10148;47.694;9.442;2022-07-29T01:23:11;18.20;99.90
19974;DHT22;10148;47.694;9.442;2022-07-29T01:25:50;18.10;99.90
19974;DHT22;10148;47.694;9.442;2022-07-29T01:31:25;18.10;99.90
19974;DHT22;10148;47.694;9.442;2022-07-29T01:33:58;18.10;99.90
19974;DHT22;10148;47.694;9.442;2022-07-29T01:39:30;18.10;99.90
19974;DHT22;10148;47.694;9.442;2022-07-29T01:41:57;18.10;99.90
19974;DHT22;10148;47.694;9.442;2022-07-29T01:44:31;18.10;99.90
19974;DHT22;10148;47.694;9.442;2022-07-29T01:47:01;18.00;99.90
19974;DHT22;10148;47.694;9.442;2022-07-29T01:49:35;18.00;99.90
19974;DHT22;10148;47.694;9.442;2022-07-29T01:52:05;18.00;99.90
19974;DHT22;10148;47.694;9.442;2022-07-29T01:54:39;18.00;99.90
19974;DHT22;10148;47.694;9.442;2022-07-29T01:57:10;18.00;99.90
19974;DHT22;10148;47.694;9.442;2022-07-29T01:59:38;17.90;99.90
19974;DHT22;10148;47.694;9.442;2022-07-29T02:02:05;17.90;99.90
19974;DHT22;10148;47.694;9.442;2022-07-29T02:04:32;17.90;99.90
19974;DHT22;10148;47.694;9.442;2022-07-29T02:07:01;17.80;99.90
19974;DHT22;10148;47.694;9.442;2022-07-29T02:09:29;17.70;99.90
19974;DHT22;10148;47.694;9.442;2022-07-29T02:11:56;17.70;99.90
19974;DHT22;10148;47.694;9.442;2022-07-29T02:14:23;17.70;99.90
19974;DHT22;10148;47.694;9.442;2022-07-29T02:16:52;17.70;99.90
19974;DHT22;10148;47.694;9.442;2022-07-29T02:19:21;17.70;99.90
19974;DHT22;10148;47.694;9.442;2022-07-29T02:21:48;17.60;99.90
19974;DHT22;10148;47.694;9.442;2022-07-29T02:24:16;17.60;99.90
19974;DHT22;10148;47.694;9.442;2022-07-29T02:26:43;17.60;99.90
19974;DHT22;10148;47.694;9.442;2022-07-29T02:29:10;17.60;99.90
19974;DHT22;10148;47.694;9.442;2022-07-29T02:31:37;17.60;99.90
19974;DHT22;10148;47.694;9.442;2022-07-29T02:34:07;17.60;99.90
19974;DHT22;10148;47.694;9.442;2022-07-29T02:36:34;17.60;99.90
19974;DHT22;10148;47.694;9.442;2022-07-29T02:39:01;17.60;99.90
19974;DHT22;10148;47.694;9.442;2022-07-29T02:42:02;17.60;99.90
19974;DHT22;10148;47.694;9.442;2022-07-29T02:44:28;17.50;99.90
19974;DHT22;10148;47.694;9.442;2022-07-29T02:52:52;17.50;99.90
19974;DHT22;10148;47.694;9.442;2022-07-29T02:55:26;17.50;99.90
19974;DHT22;10148;47.694;9.442;2022-07-29T02:58:01;17.50;99.90
19974;DHT22;10148;47.694;9.442;2022-07-29T03:00:29;17.40;99.90
19974;DHT22;10148;47.694;9.442;2022-07-29T03:02:58;17.40;99.90
19974;DHT22;10148;47.694;9.442;2022-07-29T03:05:25;17.40;99.90
19974;DHT22;10148;47.694;9.442;2022-07-29T03:07:55;17.50;99.90
19974;DHT22;10148;47.694;9.442;2022-07-29T03:10:21;17.50;99.90
19974;DHT22;10148;47.694;9.442;2022-07-29T03:12:48;17.40;99.90
19974;DHT22;10148;47.694;9.442;2022-07-29T03:15:14;17.40;99.90
19974;DHT22;10148;47.694;9.442;2022-07-29T03:17:40;17.40;99.90
19974;DHT22;10148;47.694;9.442;2022-07-29T03:20:07;17.40;99.90
19974;DHT22;10148;47.694;9.442;2022-07-29T03:22:39;17.40;99.90
19974;DHT22;10148;47.694;9.442;2022-07-29T03:25:09;17.50;99.90
19974;DHT22;10148;47.694;9.442;2022-07-29T03:27:35;17.50;99.90
19974;DHT22;10148;47.694;9.442;2022-07-29T03:30:01;17.50;99.90
19974;DHT22;10148;47.694;9.442;2022-07-29T03:32:26;17.50;99.90
19974;DHT22;10148;47.694;9.442;2022-07-29T03:34:52;17.60;99.90
19974;DHT22;10148;47.694;9.442;2022-07-29T03:37:18;17.60;99.90
19974;DHT22;10148;47.694;9.442;2022-07-29T03:39:44;17.70;99.90
19974;DHT22;10148;47.694;9.442;2022-07-29T03:42:13;17.70;99.90
19974;DHT22;10148;47.694;9.442;2022-07-29T03:44:42;17.70;99.90
19974;DHT22;10148;47.694;9.442;2022-07-29T03:47:09;17.70;99.90
19974;DHT22;10148;47.694;9.442;2022-07-29T03:49:36;17.70;99.90
19974;DHT22;10148;47.694;9.442;2022-07-29T03:52:03;17.70;99.90
19974;DHT22;10148;47.694;9.442;2022-07-29T03:54:29;17.70;99.90
19974;DHT22;10148;47.694;9.442;2022-07-29T03:56:59;17.70;99.90
19974;DHT22;10148;47.694;9.442;2022-07-29T03:59:25;17.70;99.90
19974;DHT22;10148;47.694;9.442;2022-07-29T04:01:51;17.70;99.90
19974;DHT22;10148;47.694;9.442;2022-07-29T04:04:17;17.70;99.90
19974;DHT22;10148;47.694;9.442;2022-07-29T04:06:44;17.70;99.90
19974;DHT22;10148;47.694;9.442;2022-07-29T04:09:10;17.70;99.90
19974;DHT22;10148;47.694;9.442;2022-07-29T04:11:38;17.70;99.90
19974;DHT22;10148;47.694;9.442;2022-07-29T04:14:04;17.70;99.90
19974;DHT22;10148;47.694;9.442;2022-07-29T04:16:29;17.80;99.90
19974;DHT22;10148;47.694;9.442;2022-07-29T04:18:55;17.70;99.90
19974;DHT22;10148;47.694;9.442;2022-07-29T04:21:20;17.80;99.90
19974;DHT22;10148;47.694;9.442;2022-07-29T04:23:46;17.80;99.90
19974;DHT22;10148;47.694;9.442;2022-07-29T04:26:15;17.80;99.90
19974;DHT22;10148;47.694;9.442;2022-07-29T04:28:41;17.80;99.90
19974;DHT22;10148;47.694;9.442;2022-07-29T04:31:08;17.90;99.90
19974;DHT22;10148;47.694;9.442;2022-07-29T04:33:33;17.90;99.90
19974;DHT22;10148;47.694;9.442;2022-07-29T04:35:59;17.80;99.90
19974;DHT22;10148;47.694;9.442;2022-07-29T04:38:24;17.90;99.90
19974;DHT22;10148;47.694;9.442;2022-07-29T04:40:50;17.90;99.90
19974;DHT22;10148;47.694;9.442;2022-07-29T04:43:16;18.00;99.90
19974;DHT22;10148;47.694;9.442;2022-07-29T04:45:41;18.00;99.90
19974;DHT22;10148;47.694;9.442;2022-07-29T04:48:07;18.10;99.90
19974;DHT22;10148;47.694;9.442;2022-07-29T04:50:33;18.00;99.90
19974;DHT22;10148;47.694;9.442;2022-07-29T04:52:58;18.10;99.90
19974;DHT22;10148;47.694;9.442;2022-07-29T04:55:24;18.00;99.90
19974;DHT22;10148;47.694;9.442;2022-07-29T04:57:50;18.10;99.90
19974;DHT22;10148;47.694;9.442;2022-07-29T05:00:15;18.10;99.90
19974;DHT22;10148;47.694;9.442;2022-07-29T05:02:41;18.10;99.90
19974;DHT22;10148;47.694;9.442;2022-07-29T05:05:07;18.10;99.90
19974;DHT22;10148;47.694;9.442;2022-07-29T05:07:33;18.00;99.90
19974;DHT22;10148;47.694;9.442;2022-07-29T05:09:58;18.00;99.90
19974;DHT22;10148;47.694;9.442;2022-07-29T05:12:25;18.00;99.90
19974;DHT22;10148;47.694;9.442;2022-07-29T05:14:51;18.00;99.90
19974;DHT22;10148;47.694;9.442;2022-07-29T05:17:16;18.00;99.90
19974;DHT22;10148;47.694;9.442;2022-07-29T05:19:42;18.10;99.90
19974;DHT22;10148;47.694;9.442;2022-07-29T05:22:07;18.10;99.90
19974;DHT22;10148;47.694;9.442;2022-07-29T05:24:33;18.10;99.90
19974;DHT22;10148;47.694;9.442;2022-07-29T05:26:58;18.10;99.90
19974;DHT22;10148;47.694;9.442;2022-07-29T05:29:24;18.10;99.90
19974;DHT22;10148;47.694;9.442;2022-07-29T05:31:49;18.10;99.90
19974;DHT22;10148;47.694;9.442;2022-07-29T05:34:17;18.20;99.90
19974;DHT22;10148;47.694;9.442;2022-07-29T05:36:44;18.20;99.90
19974;DHT22;10148;47.694;9.442;2022-07-29T05:39:10;18.20;99.90
19974;DHT22;10148;47.694;9.442;2022-07-29T05:41:36;18.20;99.90
19974;DHT22;10148;47.694;9.442;2022-07-29T05:44:02;18.30;99.90
19974;DHT22;10148;47.694;9.442;2022-07-29T05:46:27;18.30;99.90
19974;DHT22;10148;47.694;9.442;2022-07-29T05:48:53;18.40;99.90
19974;DHT22;10148;47.694;9.442;2022-07-29T05:51:18;18.40;99.90
19974;DHT22;10148;47.694;9.442;2022-07-29T05:53:44;18.40;99.90
19974;DHT22;10148;47.694;9.442;2022-07-29T05:56:10;18.40;99.90
19974;DHT22;10148;47.694;9.442;2022-07-29T05:58:36;18.40;99.90
19974;DHT22;10148;47.694;9.442;2022-07-29T06:01:01;18.40;99.90
19974;DHT22;10148;47.694;9.442;2022-07-29T06:03:28;18.40;99.90
19974;DHT22;10148;47.694;9.442;2022-07-29T06:05:53;18.40;99.90
19974;DHT22;10148;47.694;9.442;2022-07-29T06:08:19;18.40;99.90
19974;DHT22;10148;47.694;9.442;2022-07-29T06:10:45;18.40;99.90
19974;DHT22;10148;47.694;9.442;2022-07-29T06:13:11;18.50;99.90
19974;DHT22;10148;47.694;9.442;2022-07-29T06:15:37;18.50;99.90
19974;DHT22;10148;47.694;9.442;2022-07-29T06:18:02;18.60;99.90
19974;DHT22;10148;47.694;9.442;2022-07-29T06:20:29;18.70;99.90
19974;DHT22;10148;47.694;9.442;2022-07-29T06:22:56;18.70;99.90
19974;DHT22;10148;47.694;9.442;2022-07-29T06:25:21;18.70;99.90
19974;DHT22;10148;47.694;9.442;2022-07-29T06:27:47;18.70;99.90
19974;DHT22;10148;47.694;9.442;2022-07-29T06:30:13;18.80;99.90
19974;DHT22;10148;47.694;9.442;2022-07-29T06:32:38;18.80;99.90
19974;DHT22;10148;47.694;9.442;2022-07-29T06:35:04;18.90;99.90
19974;DHT22;10148;47.694;9.442;2022-07-29T06:37:30;18.90;99.90
19974;DHT22;10148;47.694;9.442;2022-07-29T06:39:55;19.10;99.90
19974;DHT22;10148;47.694;9.442;2022-07-29T06:42:43;19.20;99.90
19974;DHT22;10148;47.694;9.442;2022-07-29T06:45:10;19.20;99.90
19974;DHT22;10148;47.694;9.442;2022-07-29T06:47:35;19.30;99.90
19974;DHT22;10148;47.694;9.442;2022-07-29T06:50:01;19.30;99.90
19974;DHT22;10148;47.694;9.442;2022-07-29T06:52:27;19.30;99.90
19974;DHT22;10148;47.694;9.442;2022-07-29T06:54:52;19.30;99.90
19974;DHT22;10148;47.694;9.442;2022-07-29T06:57:20;19.50;99.90
19974;DHT22;10148;47.694;9.442;2022-07-29T06:59:46;19.60;99.90
19974;DHT22;10148;47.694;9.442;2022-07-29T07:02:11;19.60;99.90
19974;DHT22;10148;47.694;9.442;2022-07-29T07:04:37;19.70;99.90
19974;DHT22;10148;47.694;9.442;2022-07-29T07:07:02;19.80;99.90
19974;DHT22;10148;47.694;9.442;2022-07-29T07:09:28;19.90;99.90
19974;DHT22;10148;47.694;9.442;2022-07-29T07:11:53;20.00;99.90
19974;DHT22;10148;47.694;9.442;2022-07-29T07:14:19;20.10;99.90
19974;DHT22;10148;47.694;9.442;2022-07-29T07:16:44;20.20;99.90
19974;DHT22;10148;47.694;9.442;2022-07-29T07:19:10;20.30;99.90
19974;DHT22;10148;47.694;9.442;2022-07-29T07:21:35;20.50;99.90
19974;DHT22;10148;47.694;9.442;2022-07-29T07:24:01;20.60;99.90
19974;DHT22;10148;47.694;9.442;2022-07-29T07:26:27;20.80;99.90
19974;DHT22;10148;47.694;9.442;2022-07-29T07:28:53;20.90;99.90
19974;DHT22;10148;47.694;9.442;2022-07-29T07:31:18;20.90;99.90
19974;DHT22;10148;47.694;9.442;2022-07-29T07:33:44;21.00;99.90
19974;DHT22;10148;47.694;9.442;2022-07-29T07:36:10;21.10;99.90
19974;DHT22;10148;47.694;9.442;2022-07-29T07:38:35;21.20;99.90
19974;DHT22;10148;47.694;9.442;2022-07-29T07:41:01;21.20;99.90
19974;DHT22;10148;47.694;9.442;2022-07-29T07:43:27;21.30;99.90
19974;DHT22;10148;47.694;9.442;2022-07-29T07:45:52;21.30;99.90
19974;DHT22;10148;47.694;9.442;2022-07-29T07:48:18;21.30;99.90
19974;DHT22;10148;47.694;9.442;2022-07-29T07:50:43;21.20;99.90
19974;DHT22;10148;47.694;9.442;2022-07-29T07:53:09;21.20;99.90
19974;DHT22;10148;47.694;9.442;2022-07-29T07:55:40;21.20;99.90
19974;DHT22;10148;47.694;9.442;2022-07-29T07:58:06;21.10;99.90
19974;DHT22;10148;47.694;9.442;2022-07-29T08:00:31;21.10;99.90
19974;DHT22;10148;47.694;9.442;2022-07-29T08:02:57;21.10;99.90
19974;DHT22;10148;47.694;9.442;2022-07-29T08:05:23;21.00;99.90
19974;DHT22;10148;47.694;9.442;2022-07-29T08:07:49;21.00;99.90
19974;DHT22;10148;47.694;9.442;2022-07-29T08:10:18;21.10;99.90
19974;DHT22;10148;47.694;9.442;2022-07-29T08:13:05;21.20;99.90
19974;DHT22;10148;47.694;9.442;2022-07-29T08:15:31;21.20;99.90
19974;DHT22;10148;47.694;9.442;2022-07-29T08:17:57;21.20;99.90
19974;DHT22;10148;47.694;9.442;2022-07-29T08:20:23;21.10;99.90
19974;DHT22;10148;47.694;9.442;2022-07-29T08:22:48;21.10;99.90
19974;DHT22;10148;47.694;9.442;2022-07-29T08:25:14;21.10;99.90
19974;DHT22;10148;47.694;9.442;2022-07-29T08:27:39;21.20;99.90
19974;DHT22;10148;47.694;9.442;2022-07-29T08:30:05;21.30;99.90
19974;DHT22;10148;47.694;9.442;2022-07-29T08:32:31;21.30;99.90
19974;DHT22;10148;47.694;9.442;2022-07-29T08:34:56;21.40;99.90
19974;DHT22;10148;47.694;9.442;2022-07-29T08:37:22;21.50;99.90
19974;DHT22;10148;47.694;9.442;2022-07-29T08:39:48;21.60;99.90
19974;DHT22;10148;47.694;9.442;2022-07-29T08:42:13;21.60;99.90
19974;DHT22;10148;47.694;9.442;2022-07-29T08:44:39;21.70;99.90
19974;DHT22;10148;47.694;9.442;2022-07-29T08:47:05;21.70;99.90
19974;DHT22;10148;47.694;9.442;2022-07-29T08:49:33;21.70;99.90
19974;DHT22;10148;47.694;9.442;2022-07-29T08:52:00;21.70;99.90
19974;DHT22;10148;47.694;9.442;2022-07-29T08:54:27;21.70;99.90
19974;DHT22;10148;47.694;9.442;2022-07-29T08:56:53;21.70;99.90
19974;DHT22;10148;47.694;9.442;2022-07-29T08:59:20;21.70;99.90
19974;DHT22;10148;47.694;9.442;2022-07-29T09:01:48;21.70;99.90
19974;DHT22;10148;47.694;9.442;2022-07-29T09:04:15;21.80;99.90
19974;DHT22;10148;47.694;9.442;2022-07-29T09:06:44;21.80;99.90
19974;DHT22;10148;47.694;9.442;2022-07-29T09:09:13;21.80;99.90
19974;DHT22;10148;47.694;9.442;2022-07-29T09:11:39;21.80;99.90
19974;DHT22;10148;47.694;9.442;2022-07-29T09:14:06;21.80;99.90
19974;DHT22;10148;47.694;9.442;2022-07-29T09:19:39;21.80;99.90
19974;DHT22;10148;47.694;9.442;2022-07-29T09:22:06;21.80;99.90
19974;DHT22;10148;47.694;9.442;2022-07-29T09:24:45;21.70;99.90
19974;DHT22;10148;47.694;9.442;2022-07-29T09:27:25;21.70;99.90
19974;DHT22;10148;47.694;9.442;2022-07-29T09:30:04;21.70;99.90
19974;DHT22;10148;47.694;9.442;2022-07-29T09:32:31;21.80;99.90
19974;DHT22;10148;47.694;9.442;2022-07-29T09:35:17;21.70;99.90
19974;DHT22;10148;47.694;9.442;2022-07-29T09:37:44;21.70;99.90
19974;DHT22;10148;47.694;9.442;2022-07-29T09:40:14;21.70;99.90
19974;DHT22;10148;47.694;9.442;2022-07-29T09:42:41;21.60;99.90
19974;DHT22;10148;47.694;9.442;2022-07-29T09:45:06;21.60;99.90
19974;DHT22;10148;47.694;9.442;2022-07-29T09:47:44;21.50;99.90
19974;DHT22;10148;47.694;9.442;2022-07-29T09:50:15;21.40;99.90
19974;DHT22;10148;47.694;9.442;2022-07-29T09:52:49;21.30;99.90
19974;DHT22;10148;47.694;9.442;2022-07-29T09:55:15;21.20;99.90
19974;DHT22;10148;47.694;9.442;2022-07-29T09:57:41;21.20;99.90
19974;DHT22;10148;47.694;9.442;2022-07-29T10:00:16;21.10;99.90
19974;DHT22;10148;47.694;9.442;2022-07-29T10:02:43;21.10;99.90
19974;DHT22;10148;47.694;9.442;2022-07-29T10:05:21;21.10;99.90
19974;DHT22;10148;47.694;9.442;2022-07-29T10:07:57;21.00;99.90
19974;DHT22;10148;47.694;9.442;2022-07-29T10:10:26;20.90;99.90
19974;DHT22;10148;47.694;9.442;2022-07-29T10:12:55;20.90;99.90
19974;DHT22;10148;47.694;9.442;2022-07-29T10:15:23;21.00;99.90
19974;DHT22;10148;47.694;9.442;2022-07-29T10:17:50;21.00;99.90
19974;DHT22;10148;47.694;9.442;2022-07-29T10:20:16;21.10;99.90
19974;DHT22;10148;47.694;9.442;2022-07-29T10:22:42;21.20;99.90
19974;DHT22;10148;47.694;9.442;2022-07-29T10:25:10;21.20;99.90
19974;DHT22;10148;47.694;9.442;2022-07-29T10:27:36;21.20;99.90
19974;DHT22;10148;47.694;9.442;2022-07-29T10:30:03;21.10;99.90
19974;DHT22;10148;47.694;9.442;2022-07-29T10:32:47;21.20;99.90
19974;DHT22;10148;47.694;9.442;2022-07-29T10:35:33;21.20;99.90
19974;DHT22;10148;47.694;9.442;2022-07-29T10:43:44;21.40;99.90
19974;DHT22;10148;47.694;9.442;2022-07-29T10:46:11;21.40;99.90
19974;DHT22;10148;47.694;9.442;2022-07-29T10:52:02;21.60;99.90
19974;DHT22;10148;47.694;9.442;2022-07-29T10:54:43;21.80;99.90
19974;DHT22;10148;47.694;9.442;2022-07-29T10:57:27;21.90;99.90
19974;DHT22;10148;47.694;9.442;2022-07-29T11:05:01;21.90;99.90
19974;DHT22;10148;47.694;9.442;2022-07-29T11:07:28;22.00;99.90
19974;DHT22;10148;47.694;9.442;2022-07-29T11:20:33;22.20;99.90
19974;DHT22;10148;47.694;9.442;2022-07-29T11:22:59;22.30;99.90
19974;DHT22;10148;47.694;9.442;2022-07-29T11:25:25;22.40;99.90
19974;DHT22;10148;47.694;9.442;2022-07-29T11:27:52;22.40;99.90
19974;DHT22;10148;47.694;9.442;2022-07-29T11:30:19;22.40;99.90
19974;DHT22;10148;47.694;9.442;2022-07-29T11:32:45;22.50;99.90
19974;DHT22;10148;47.694;9.442;2022-07-29T11:37:37;22.70;99.90
19974;DHT22;10148;47.694;9.442;2022-07-29T11:47:38;23.40;99.90
19974;DHT22;10148;47.694;9.442;2022-07-29T11:50:07;23.50;99.90
19974;DHT22;10148;47.694;9.442;2022-07-29T11:52:44;23.80;99.90
19974;DHT22;10148;47.694;9.442;2022-07-29T11:55:13;24.10;99.90
19974;DHT22;10148;47.694;9.442;2022-07-29T11:57:55;24.10;99.90
19974;DHT22;10148;47.694;9.442;2022-07-29T12:02:52;23.90;99.90
19974;DHT22;10148;47.694;9.442;2022-07-29T12:05:19;23.90;99.90
19974;DHT22;10148;47.694;9.442;2022-07-29T12:07:45;23.90;99.90
19974;DHT22;10148;47.694;9.442;2022-07-29T12:10:10;24.00;99.90
19974;DHT22;10148;47.694;9.442;2022-07-29T12:12:36;24.20;99.90
19974;DHT22;10148;47.694;9.442;2022-07-29T12:15:22;24.40;99.90
19974;DHT22;10148;47.694;9.442;2022-07-29T12:17:49;24.70;99.90
19974;DHT22;10148;47.694;9.442;2022-07-29T12:20:26;24.80;99.90
19974;DHT22;10148;47.694;9.442;2022-07-29T12:22:52;24.70;99.90
19974;DHT22;10148;47.694;9.442;2022-07-29T12:25:19;24.90;99.90
19974;DHT22;10148;47.694;9.442;2022-07-29T12:27:45;25.00;99.90
19974;DHT22;10148;47.694;9.442;2022-07-29T12:30:15;24.90;99.90
19974;DHT22;10148;47.694;9.442;2022-07-29T12:32:43;25.00;99.90
19974;DHT22;10148;47.694;9.442;2022-07-29T12:35:12;25.00;99.90
19974;DHT22;10148;47.694;9.442;2022-07-29T12:37:39;25.10;99.90
19974;DHT22;10148;47.694;9.442;2022-07-29T12:40:07;25.10;99.90
19974;DHT22;10148;47.694;9.442;2022-07-29T12:42:34;25.00;99.90
19974;DHT22;10148;47.694;9.442;2022-07-29T12:45:00;24.90;99.90
19974;DHT22;10148;47.694;9.442;2022-07-29T12:47:27;24.90;99.90
19974;DHT22;10148;47.694;9.442;2022-07-29T12:50:12;24.80;99.90
19974;DHT22;10148;47.694;9.442;2022-07-29T12:52:39;24.70;99.90
19974;DHT22;10148;47.694;9.442;2022-07-29T12:55:05;24.60;99.90
19974;DHT22;10148;47.694;9.442;2022-07-29T12:57:31;24.60;99.90
19974;DHT22;10148;47.694;9.442;2022-07-29T13:00:08;24.50;99.90
19974;DHT22;10148;47.694;9.442;2022-07-29T13:02:39;24.40;99.90
19974;DHT22;10148;47.694;9.442;2022-07-29T13:05:07;24.30;99.90
19974;DHT22;10148;47.694;9.442;2022-07-29T13:07:34;24.20;99.90
19974;DHT22;10148;47.694;9.442;2022-07-29T13:10:14;24.20;99.90
19974;DHT22;10148;47.694;9.442;2022-07-29T13:13:02;24.30;99.90
19974;DHT22;10148;47.694;9.442;2022-07-29T13:15:28;24.30;99.90
19974;DHT22;10148;47.694;9.442;2022-07-29T13:17:54;24.30;99.90
19974;DHT22;10148;47.694;9.442;2022-07-29T13:20:24;24.10;99.90
19974;DHT22;10148;47.694;9.442;2022-07-29T13:22:49;24.10;99.90
19974;DHT22;10148;47.694;9.442;2022-07-29T13:25:32;24.20;99.90
19974;DHT22;10148;47.694;9.442;2022-07-29T13:27:59;24.20;99.90
19974;DHT22;10148;47.694;9.442;2022-07-29T13:30:24;24.30;99.90
19974;DHT22;10148;47.694;9.442;2022-07-29T13:32:52;24.20;99.90
19974;DHT22;10148;47.694;9.442;2022-07-29T13:35:18;24.30;99.90
19974;DHT22;10148;47.694;9.442;2022-07-29T13:37:44;24.20;99.90
19974;DHT22;10148;47.694;9.442;2022-07-29T13:40:11;24.20;99.90
19974;DHT22;10148;47.694;9.442;2022-07-29T13:42:37;24.20;99.90
19974;DHT22;10148;47.694;9.442;2022-07-29T13:45:03;24.10;99.90
19974;DHT22;10148;47.694;9.442;2022-07-29T13:47:29;24.00;99.90
19974;DHT22;10148;47.694;9.442;2022-07-29T13:49:55;24.00;99.90
19974;DHT22;10148;47.694;9.442;2022-07-29T13:52:21;24.00;99.90
19974;DHT22;10148;47.694;9.442;2022-07-29T13:54:46;24.00;99.90
19974;DHT22;10148;47.694;9.442;2022-07-29T13:57:13;24.10;99.90
19974;DHT22;10148;47.694;9.442;2022-07-29T13:59:42;24.20;99.90
19974;DHT22;10148;47.694;9.442;2022-07-29T14:02:08;24.40;99.90
19974;DHT22;10148;47.694;9.442;2022-07-29T14:04:34;24.40;99.90
19974;DHT22;10148;47.694;9.442;2022-07-29T14:07:01;24.40;99.90
19974;DHT22;10148;47.694;9.442;2022-07-29T14:09:26;24.40;99.90
19974;DHT22;10148;47.694;9.442;2022-07-29T14:11:52;24.40;99.90
19974;DHT22;10148;47.694;9.442;2022-07-29T14:14:19;24.40;99.90
19974;DHT22;10148;47.694;9.442;2022-07-29T14:16:45;24.40;99.90
19974;DHT22;10148;47.694;9.442;2022-07-29T14:19:11;24.40;99.90
19974;DHT22;10148;47.694;9.442;2022-07-29T14:21:37;24.60;99.90
19974;DHT22;10148;47.694;9.442;2022-07-29T14:24:03;24.60;99.90
19974;DHT22;10148;47.694;9.442;2022-07-29T14:26:29;24.40;99.90
19974;DHT22;10148;47.694;9.442;2022-07-29T14:28:54;24.30;99.90
19974;DHT22;10148;47.694;9.442;2022-07-29T14:31:20;24.10;99.90
19974;DHT22;10148;47.694;9.442;2022-07-29T14:33:45;23.90;99.90
19974;DHT22;10148;47.694;9.442;2022-07-29T14:36:11;23.80;99.90
19974;DHT22;10148;47.694;9.442;2022-07-29T14:38:37;23.80;99.90
19974;DHT22;10148;47.694;9.442;2022-07-29T14:41:03;23.80;99.90
19974;DHT22;10148;47.694;9.442;2022-07-29T14:43:28;23.70;99.90
19974;DHT22;10148;47.694;9.442;2022-07-29T14:45:54;23.60;99.90
19974;DHT22;10148;47.694;9.442;2022-07-29T14:48:19;23.60;99.90
19974;DHT22;10148;47.694;9.442;2022-07-29T14:50:45;23.50;99.90
19974;DHT22;10148;47.694;9.442;2022-07-29T14:53:10;23.40;99.90
19974;DHT22;10148;47.694;9.442;2022-07-29T14:55:38;23.20;99.90
19974;DHT22;10148;47.694;9.442;2022-07-29T14:58:04;23.20;99.90
19974;DHT22;10148;47.694;9.442;2022-07-29T15:00:30;23.10;99.90
19974;DHT22;10148;47.694;9.442;2022-07-29T15:02:58;23.00;99.90
19974;DHT22;10148;47.694;9.442;2022-07-29T15:05:24;22.70;99.90
19974;DHT22;10148;47.694;9.442;2022-07-29T15:07:50;22.40;99.90
19974;DHT22;10148;47.694;9.442;2022-07-29T15:10:16;22.20;99.90
19974;DHT22;10148;47.694;9.442;2022-07-29T15:12:41;21.90;99.90
19974;DHT22;10148;47.694;9.442;2022-07-29T15:15:07;21.60;99.90
19974;DHT22;10148;47.694;9.442;2022-07-29T15:17:33;21.60;99.90
19974;DHT22;10148;47.694;9.442;2022-07-29T15:19:58;21.50;99.90
19974;DHT22;10148;47.694;9.442;2022-07-29T15:22:24;21.60;99.90
19974;DHT22;10148;47.694;9.442;2022-07-29T15:24:50;21.60;99.90
19974;DHT22;10148;47.694;9.442;2022-07-29T15:27:15;21.60;99.90
19974;DHT22;10148;47.694;9.442;2022-07-29T15:29:41;21.50;99.90
19974;DHT22;10148;47.694;9.442;2022-07-29T15:32:07;21.50;99.90
19974;DHT22;10148;47.694;9.442;2022-07-29T15:34:33;21.50;99.90
19974;DHT22;10148;47.694;9.442;2022-07-29T15:36:59;21.50;99.90
19974;DHT22;10148;47.694;9.442;2022-07-29T15:39:25;21.40;99.90
19974;DHT22;10148;47.694;9.442;2022-07-29T15:41:50;21.30;99.90
19974;DHT22;10148;47.694;9.442;2022-07-29T15:44:16;21.30;99.90
19974;DHT22;10148;47.694;9.442;2022-07-29T15:46:42;21.20;99.90
19974;DHT22;10148;47.694;9.442;2022-07-29T15:49:26;21.10;99.90
19974;DHT22;10148;47.694;9.442;2022-07-29T15:51:59;21.00;99.90
19974;DHT22;10148;47.694;9.442;2022-07-29T15:54:26;20.90;99.90
19974;DHT22;10148;47.694;9.442;2022-07-29T15:56:53;20.80;99.90
19974;DHT22;10148;47.694;9.442;2022-07-29T15:59:19;20.70;99.90
19974;DHT22;10148;47.694;9.442;2022-07-29T16:01:45;20.60;99.90
19974;DHT22;10148;47.694;9.442;2022-07-29T16:04:10;20.50;99.90
19974;DHT22;10148;47.694;9.442;2022-07-29T16:06:36;20.50;99.90
19974;DHT22;10148;47.694;9.442;2022-07-29T16:09:01;20.40;99.90
19974;DHT22;10148;47.694;9.442;2022-07-29T16:11:27;20.30;99.90
19974;DHT22;10148;47.694;9.442;2022-07-29T16:13:52;20.30;99.90
19974;DHT22;10148;47.694;9.442;2022-07-29T16:16:18;20.40;99.90
19974;DHT22;10148;47.694;9.442;2022-07-29T16:18:44;20.40;99.90
19974;DHT22;10148;47.694;9.442;2022-07-29T16:21:11;20.40;99.90
19974;DHT22;10148;47.694;9.442;2022-07-29T16:23:37;20.40;99.90
19974;DHT22;10148;47.694;9.442;2022-07-29T16:26:02;20.40;99.90